Time;durP1;ratioP1;P1;durP2;ratioP2;P2;SDS_P1;SDS_P2;PMS_P1;PMS_P2;Temp;Humidity;BMP_temperature;BMP_pressure;BME280_temperature;BME280_humidity;BME280_pressure;Samples;Min_cycle;Max_cycle;Signal;HPM_P1;HPM_P2
2020/12/03 00:00:58;;;;;;;9.38;6.15;;;;;;;;;;4999783;28;20041;-52
2020/12/03 00:03:25;;;;;;;8.95;5.60;;;;;;;;;;5004232;28;20485;-51
2020/12/03 00:06:07;;;;;;;9.13;5.85;;;;;;;;;;4994360;28;20026;-55
2020/12/03 00:08:34;;;;;;;8.65;5.78;;;;;;;;;;5002866;28;20088;-54
2020/12/03 00:11:02;;;;;;;9.68;5.70;;;;;;;;;;5012353;28;20026;-54
2020/12/03 00:13:29;;;;;;;8.52;5.93;;;;;;;;;;5002724;28;20125;-54
2020/12/03 00:15:56;;;;;;;9.20;6.07;;;;;;;;;;5008222;28;20076;-54
2020/12/03 00:18:22;;;;;;;7.55;5.40;;;;;;;;;;5013964;28;20034;-54
2020/12/03 00:20:47;;;;;;;9.40;5.85;;;;;;;;;;5000928;28;20435;-54
2020/12/03 00:23:13;;;;;;;8.30;5.63;;;;;;;;;;4994142;28;20034;-55
2020/12/03 00:25:38;;;;;;;7.33;5.40;;;;;;;;;;4994010;28;20033;-55
2020/12/03 00:28:03;;;;;;;8.50;5.83;;;;;;;;;;4994000;28;20062;-54
2020/12/03 00:30:29;;;;;;;7.83;5.50;;;;;;;;;;5004272;28;20029;-55
2020/12/03 00:32:54;;;;;;;8.40;5.60;;;;;;;;;;5013628;28;20062;-56
2020/12/03 00:35:21;;;;;;;8.23;5.47;;;;;;;;;;5012963;28;20041;-54
2020/12/03 00:37:47;;;;;;;7.50;5.20;;;;;;;;;;5013792;28;20384;-56
2020/12/03 00:40:12;;;;;;;7.63;5.50;;;;;;;;;;5005159;28;20061;-55
2020/12/03 00:42:37;;;;;;;8.13;5.57;;;;;;;;;;4994002;28;20105;-54
2020/12/03 00:45:04;;;;;;;8.13;5.63;;;;;;;;;;4993835;28;20061;-53
2020/12/03 00:47:29;;;;;;;8.25;5.97;;;;;;;;;;4993723;28;20022;-55
2020/12/03 00:49:56;;;;;;;8.63;5.63;;;;;;;;;;4998817;28;20052;-54
2020/12/03 00:52:22;;;;;;;8.13;5.65;;;;;;;;;;5013576;28;20029;-56
2020/12/03 00:54:47;;;;;;;7.23;5.10;;;;;;;;;;5013146;28;20029;-54
2020/12/03 00:57:12;;;;;;;8.30;5.77;;;;;;;;;;5013360;28;20028;-56
2020/12/03 00:59:38;;;;;;;7.67;5.90;;;;;;;;;;5009978;28;20062;-52
2020/12/03 01:02:11;;;;;;;8.30;5.37;;;;;;;;;;4993865;28;20072;-56
2020/12/03 01:04:37;;;;;;;7.80;5.43;;;;;;;;;;4993978;28;20026;-55
2020/12/03 01:07:03;;;;;;;8.02;5.72;;;;;;;;;;4993660;28;20102;-55
2020/12/03 01:09:28;;;;;;;7.73;5.20;;;;;;;;;;4994783;28;20216;-53
2020/12/03 01:11:53;;;;;;;8.03;5.70;;;;;;;;;;5007446;28;20117;-55
2020/12/03 01:14:19;;;;;;;7.30;5.03;;;;;;;;;;4992546;28;20069;-54
2020/12/03 01:16:45;;;;;;;7.33;5.20;;;;;;;;;;4993974;28;20502;-54
2020/12/03 01:19:10;;;;;;;7.65;5.20;;;;;;;;;;4993655;28;20022;-55
2020/12/03 01:21:36;;;;;;;8.17;5.50;;;;;;;;;;5011744;28;20069;-55
2020/12/03 01:24:01;;;;;;;7.87;5.43;;;;;;;;;;5012680;28;20049;-57
2020/12/03 01:26:26;;;;;;;8.33;5.90;;;;;;;;;;5013253;28;20069;-53
2020/12/03 01:28:52;;;;;;;7.60;5.50;;;;;;;;;;5013365;28;20062;-56
2020/12/03 01:31:17;;;;;;;7.57;5.27;;;;;;;;;;4997048;28;20062;-57
2020/12/03 01:33:42;;;;;;;7.77;5.33;;;;;;;;;;4993347;28;20058;-56
2020/12/03 01:36:08;;;;;;;8.20;5.50;;;;;;;;;;5007119;28;20112;-55
2020/12/03 01:38:33;;;;;;;6.90;5.00;;;;;;;;;;5013056;28;20038;-54
2020/12/03 01:40:58;;;;;;;8.20;5.13;;;;;;;;;;4999622;28;20033;-56
2020/12/03 01:43:24;;;;;;;7.43;5.60;;;;;;;;;;4993232;28;20065;-56
2020/12/03 01:45:56;;;;;;;6.90;5.10;;;;;;;;;;4993475;28;20050;-52
2020/12/03 01:49:01;;;;;;;7.40;4.90;;;;;;;;;;4996867;28;20460;-54
2020/12/03 01:51:38;;;;;;;7.25;5.07;;;;;;;;;;5011739;28;20550;-54
2020/12/03 01:54:06;;;;;;;7.73;5.10;;;;;;;;;;5015663;28;20027;-56
2020/12/03 01:57:01;;;;;;;7.30;4.68;;;;;;;;;;5016146;28;20034;-54
2020/12/03 01:59:28;;;;;;;7.43;5.28;;;;;;;;;;5014420;28;20084;-56
2020/12/03 02:01:56;;;;;;;8.35;4.80;;;;;;;;;;5015074;28;20040;-55
2020/12/03 02:04:22;;;;;;;7.30;5.07;;;;;;;;;;5016504;28;20370;-56
2020/12/03 02:07:00;;;;;;;6.80;4.90;;;;;;;;;;5016307;28;20069;-56
2020/12/03 02:09:25;;;;;;;8.63;5.20;;;;;;;;;;5001320;28;20026;-55
2020/12/03 02:11:50;;;;;;;6.97;4.70;;;;;;;;;;5016123;28;20056;-54
2020/12/03 02:14:16;;;;;;;7.10;4.70;;;;;;;;;;5015755;28;20026;-56
2020/12/03 02:16:41;;;;;;;7.30;5.30;;;;;;;;;;5016543;28;20078;-55
2020/12/03 02:19:27;;;;;;;7.00;4.70;;;;;;;;;;5014385;28;20551;-54
2020/12/03 02:22:01;;;;;;;7.18;4.97;;;;;;;;;;5011422;28;20026;-57
2020/12/03 02:24:28;;;;;;;7.07;5.05;;;;;;;;;;4995239;28;20026;-56
2020/12/03 02:26:53;;;;;;;8.75;4.53;;;;;;;;;;4995147;28;20026;-54
2020/12/03 02:29:19;;;;;;;7.57;5.20;;;;;;;;;;4996184;28;20453;-54
2020/12/03 02:31:44;;;;;;;8.87;5.70;;;;;;;;;;5029909;28;20042;-55
2020/12/03 02:34:09;;;;;;;7.67;4.77;;;;;;;;;;5015509;28;20060;-56
2020/12/03 02:36:35;;;;;;;7.37;5.23;;;;;;;;;;5007471;28;20060;-53
2020/12/03 02:39:00;;;;;;;7.60;5.10;;;;;;;;;;5015567;28;20042;-55
2020/12/03 02:41:25;;;;;;;6.67;4.50;;;;;;;;;;4998881;28;20057;-56
2020/12/03 02:43:51;;;;;;;6.93;4.47;;;;;;;;;;4997110;28;20118;-57
2020/12/03 02:46:16;;;;;;;6.37;4.60;;;;;;;;;;4995999;28;20508;-56
2020/12/03 02:48:41;;;;;;;7.40;4.90;;;;;;;;;;4995773;28;20533;-53
2020/12/03 02:51:07;;;;;;;7.80;5.37;;;;;;;;;;5009438;28;20054;-55
2020/12/03 02:53:32;;;;;;;6.80;4.90;;;;;;;;;;5015309;28;20554;-54
2020/12/03 02:55:57;;;;;;;6.87;4.73;;;;;;;;;;5015479;28;20524;-55
2020/12/03 02:58:23;;;;;;;6.50;4.53;;;;;;;;;;5014686;28;20425;-55
2020/12/03 03:00:48;;;;;;;7.30;4.90;;;;;;;;;;5007005;28;20485;-55
2020/12/03 03:03:13;;;;;;;7.20;4.60;;;;;;;;;;5015337;28;20082;-54
2020/12/03 03:05:39;;;;;;;8.40;4.97;;;;;;;;;;5014835;28;20069;-54
2020/12/03 03:08:04;;;;;;;7.43;4.70;;;;;;;;;;5015169;28;20122;-56
2020/12/03 03:10:29;;;;;;;6.77;4.70;;;;;;;;;;5008096;28;20085;-56
2020/12/03 03:12:55;;;;;;;8.07;4.83;;;;;;;;;;4995453;28;20070;-56
2020/12/03 03:15:20;;;;;;;7.00;4.50;;;;;;;;;;4995315;28;20494;-52
2020/12/03 03:17:45;;;;;;;8.40;4.53;;;;;;;;;;4995213;28;20034;-56
2020/12/03 03:20:11;;;;;;;8.47;4.60;;;;;;;;;;4999013;28;20061;-56
2020/12/03 03:22:39;;;;;;;6.43;4.37;;;;;;;;;;5014786;28;20034;-56
2020/12/03 03:25:04;;;;;;;7.85;4.68;;;;;;;;;;5014978;28;20052;-56
2020/12/03 03:27:30;;;;;;;6.60;4.53;;;;;;;;;;5014757;28;20496;-54
2020/12/03 03:29:55;;;;;;;7.90;4.70;;;;;;;;;;5009617;28;20589;-51
2020/12/03 03:32:20;;;;;;;7.00;4.80;;;;;;;;;;4995051;28;20481;-56
2020/12/03 03:34:45;;;;;;;6.93;4.60;;;;;;;;;;4997434;28;20477;-55
2020/12/03 03:37:11;;;;;;;7.70;4.77;;;;;;;;;;5014552;28;20433;-54
2020/12/03 03:39:36;;;;;;;6.67;4.60;;;;;;;;;;5013156;28;20445;-56
2020/12/03 03:42:01;;;;;;;6.60;4.40;;;;;;;;;;5014831;28;20068;-57
2020/12/03 03:44:27;;;;;;;7.27;4.50;;;;;;;;;;5014126;28;20049;-53
2020/12/03 03:46:52;;;;;;;6.83;4.20;;;;;;;;;;5014335;28;20065;-55
2020/12/03 03:49:17;;;;;;;6.90;4.70;;;;;;;;;;5014510;28;20057;-56
2020/12/03 03:51:43;;;;;;;6.97;4.47;;;;;;;;;;4995253;28;20112;-56
2020/12/03 03:54:08;;;;;;;8.33;4.87;;;;;;;;;;4994785;28;20508;-56
2020/12/03 03:56:33;;;;;;;6.23;4.40;;;;;;;;;;4993368;28;20101;-56
2020/12/03 03:58:59;;;;;;;6.67;4.63;;;;;;;;;;4995557;28;20482;-56
2020/12/03 04:01:24;;;;;;;8.13;4.63;;;;;;;;;;5014010;28;20117;-54
2020/12/03 04:03:49;;;;;;;7.87;4.57;;;;;;;;;;5014325;28;20054;-55
2020/12/03 04:06:15;;;;;;;7.33;4.67;;;;;;;;;;5014158;28;20022;-55
2020/12/03 04:08:40;;;;;;;7.00;4.50;;;;;;;;;;5011715;28;20541;-57
2020/12/03 04:11:06;;;;;;;6.70;4.40;;;;;;;;;;4996052;28;20080;-54
2020/12/03 04:13:31;;;;;;;7.50;5.00;;;;;;;;;;5004435;28;20068;-54
2020/12/03 04:15:56;;;;;;;7.70;4.63;;;;;;;;;;5014306;28;20079;-56
2020/12/03 04:18:26;;;;;;;7.60;4.90;;;;;;;;;;5013778;28;20022;-56
2020/12/03 04:20:59;;;;;;;6.57;4.40;;;;;;;;;;4998241;28;20064;-54
2020/12/03 04:23:25;;;;;;;6.65;4.45;;;;;;;;;;4994440;28;20026;-56
2020/12/03 04:25:50;;;;;;;6.90;4.50;;;;;;;;;;4994080;28;20107;-53
2020/12/03 04:28:16;;;;;;;6.00;4.20;;;;;;;;;;4994388;28;20057;-53
2020/12/03 04:30:41;;;;;;;7.77;4.47;;;;;;;;;;5007098;28;20037;-54
2020/12/03 04:33:06;;;;;;;6.57;4.00;;;;;;;;;;5013642;28;20064;-56
2020/12/03 04:35:32;;;;;;;6.70;4.60;;;;;;;;;;5000931;28;20063;-55
2020/12/03 04:37:57;;;;;;;6.20;4.13;;;;;;;;;;5010114;28;20053;-53
2020/12/03 04:40:32;;;;;;;6.83;4.30;;;;;;;;;;5001930;28;20116;-54
2020/12/03 04:42:58;;;;;;;7.60;4.40;;;;;;;;;;5002958;23;20077;-59
2020/12/03 04:45:32;;;;;;;8.02;4.28;;;;;;;;;;4957367;28;20440;-60
2020/12/03 04:48:10;;;;;;;6.97;4.20;;;;;;;;;;4957832;28;20038;-59
2020/12/03 04:50:59;;;;;;;6.53;4.20;;;;;;;;;;4973731;28;20042;-60
2020/12/03 04:54:03;;;;;;;6.72;4.30;;;;;;;;;;4973366;28;20026;-59
2020/12/03 04:56:39;;;;;;;8.80;4.50;;;;;;;;;;4974789;28;20109;-58
2020/12/03 04:59:17;;;;;;;7.90;4.60;;;;;;;;;;4957268;28;20054;-60
2020/12/03 05:02:03;;;;;;;6.50;4.22;;;;;;;;;;4938809;29;20240;-60
2020/12/03 05:05:06;;;;;;;8.48;4.20;;;;;;;;;;4954076;29;20483;-60
2020/12/03 05:07:31;;;;;;;6.65;4.20;;;;;;;;;;4955185;28;20474;-59
2020/12/03 05:10:34;;;;;;;6.57;4.13;;;;;;;;;;4953712;28;20097;-60
2020/12/03 05:12:59;;;;;;;6.82;4.43;;;;;;;;;;4954886;28;20070;-60
2020/12/03 05:15:34;;;;;;;6.73;4.07;;;;;;;;;;4937894;29;20039;-59
2020/12/03 05:18:21;;;;;;;7.32;4.22;;;;;;;;;;4953761;29;20482;-60
2020/12/03 05:20:50;;;;;;;5.60;4.00;;;;;;;;;;4970291;28;20150;-60
2020/12/03 05:23:28;;;;;;;7.68;4.20;;;;;;;;;;4978056;28;20553;-60
2020/12/03 05:25:54;;;;;;;6.40;3.97;;;;;;;;;;4962969;28;20171;-58
2020/12/03 05:28:32;;;;;;;7.18;3.85;;;;;;;;;;4957519;29;20105;-56
2020/12/03 05:31:23;;;;;;;6.20;4.05;;;;;;;;;;4958578;28;20057;-59
2020/12/03 05:33:49;;;;;;;7.60;4.57;;;;;;;;;;4958832;28;20031;-60
2020/12/03 05:36:28;;;;;;;6.50;4.20;;;;;;;;;;4959563;28;20454;-60
2020/12/03 05:38:54;;;;;;;5.90;4.00;;;;;;;;;;4958559;28;20031;-60
2020/12/03 05:41:19;;;;;;;6.53;3.90;;;;;;;;;;4958124;28;20054;-60
2020/12/03 05:43:45;;;;;;;6.50;4.00;;;;;;;;;;4956832;29;20024;-60
2020/12/03 05:46:11;;;;;;;5.70;4.03;;;;;;;;;;4958545;28;20053;-59
2020/12/03 05:48:36;;;;;;;7.90;4.40;;;;;;;;;;4957478;28;20071;-59
2020/12/03 05:51:23;;;;;;;6.60;4.37;;;;;;;;;;4958008;28;20019;-60
2020/12/03 05:54:00;;;;;;;7.65;4.10;;;;;;;;;;4956935;28;20023;-59
2020/12/03 05:56:25;;;;;;;7.50;4.00;;;;;;;;;;4956800;29;20043;-60
2020/12/03 05:58:51;;;;;;;7.20;4.13;;;;;;;;;;4958086;28;20541;-59
2020/12/03 06:01:18;;;;;;;6.30;4.17;;;;;;;;;;4956930;28;20031;-59
2020/12/03 06:04:21;;;;;;;7.65;4.35;;;;;;;;;;4956114;29;20046;-60
2020/12/03 06:06:49;;;;;;;6.90;4.65;;;;;;;;;;4946631;29;20126;-59
2020/12/03 06:09:56;;;;;;;8.93;4.93;;;;;;;;;;4957563;28;20039;-57
2020/12/03 06:12:43;;;;;;;8.18;4.82;;;;;;;;;;4956794;28;20043;-59
2020/12/03 06:15:27;;;;;;;6.33;4.57;;;;;;;;;;4958024;28;20062;-59
2020/12/03 06:18:07;;;;;;;8.13;4.65;;;;;;;;;;4957860;28;20032;-59
2020/12/03 06:21:31;;;;;;;7.72;5.00;;;;;;;;;;4956182;28;20069;-59
2020/12/03 06:23:59;;;;;;;7.53;4.80;;;;;;;;;;4945521;29;20120;-58
2020/12/03 06:26:51;;;;;;;8.05;5.40;;;;;;;;;;4955311;29;20391;-59
2020/12/03 06:29:38;;;;;;;8.00;5.13;;;;;;;;;;4952708;28;20482;-59
2020/12/03 06:32:24;;;;;;;8.02;5.45;;;;;;;;;;4970710;28;20442;-59
2020/12/03 06:35:02;;;;;;;10.63;5.80;;;;;;;;;;4971035;28;20038;-59
2020/12/03 06:37:32;;;;;;;8.70;5.38;;;;;;;;;;4957365;28;20062;-58
2020/12/03 06:40:01;;;;;;;8.85;5.90;;;;;;;;;;4940355;29;20031;-60
2020/12/03 06:42:26;;;;;;;9.50;6.05;;;;;;;;;;4956102;29;20035;-59
2020/12/03 06:45:03;;;;;;;11.27;5.97;;;;;;;;;;4957508;28;20090;-59
2020/12/03 06:47:47;;;;;;;9.80;5.97;;;;;;;;;;4964463;28;20026;-60
2020/12/03 06:50:22;;;;;;;10.77;6.20;;;;;;;;;;4960365;28;20481;-59
2020/12/03 06:53:15;;;;;;;10.73;6.53;;;;;;;;;;4976550;28;20392;-60
2020/12/03 06:55:53;;;;;;;10.63;6.20;;;;;;;;;;4975609;28;20030;-60
2020/12/03 06:58:40;;;;;;;9.73;6.30;;;;;;;;;;4975177;28;20034;-59
2020/12/03 07:01:36;;;;;;;9.80;6.37;;;;;;;;;;4976282;28;20041;-60
2020/12/03 07:04:39;;;;;;;11.48;6.35;;;;;;;;;;4976606;28;20528;-60
2020/12/03 07:07:25;;;;;;;9.13;6.18;;;;;;;;;;4975447;28;20019;-60
2020/12/03 07:10:19;;;;;;;9.98;6.25;;;;;;;;;;4976510;28;20023;-59
2020/12/03 07:13:04;;;;;;;10.88;6.20;;;;;;;;;;4974780;28;20038;-60
2020/12/03 07:15:39;;;;;;;10.30;7.00;;;;;;;;;;4959675;28;20026;-57
2020/12/03 07:18:56;;;;;;;10.27;6.32;;;;;;;;;;4958965;28;20027;-59
2020/12/03 07:21:48;;;;;;;11.23;6.45;;;;;;;;;;4964025;28;20058;-58
2020/12/03 07:24:17;;;;;;;10.50;6.70;;;;;;;;;;4965909;28;20379;-59
2020/12/03 07:27:08;;;;;;;10.50;6.55;;;;;;;;;;4955135;29;20023;-59
2020/12/03 07:29:51;;;;;;;11.13;6.78;;;;;;;;;;4956368;28;20034;-60
2020/12/03 07:32:20;;;;;;;10.00;6.30;;;;;;;;;;4955379;29;20038;-60
2020/12/03 07:34:46;;;;;;;10.80;6.50;;;;;;;;;;4955062;29;20031;-60
2020/12/03 07:37:36;;;;;;;10.23;6.45;;;;;;;;;;4939163;29;20426;-57
2020/12/03 07:40:02;;;;;;;10.23;6.68;;;;;;;;;;4954936;29;20041;-58
2020/12/03 07:42:27;;;;;;;10.03;6.10;;;;;;;;;;4954749;29;20402;-58
2020/12/03 07:44:53;;;;;;;10.53;6.83;;;;;;;;;;4953962;28;20031;-58
2020/12/03 07:47:31;;;;;;;10.35;6.43;;;;;;;;;;4955238;29;20438;-58
2020/12/03 07:49:57;;;;;;;9.27;6.28;;;;;;;;;;4955953;28;20495;-58
2020/12/03 07:52:25;;;;;;;10.80;6.37;;;;;;;;;;4954707;29;20114;-59
2020/12/03 07:54:50;;;;;;;9.88;6.43;;;;;;;;;;4955892;28;20034;-55
2020/12/03 07:57:46;;;;;;;10.47;6.50;;;;;;;;;;4955986;28;20023;-58
2020/12/03 08:01:00;;;;;;;10.38;6.18;;;;;;;;;;4954780;29;20027;-58
2020/12/03 08:03:36;;;;;;;10.07;6.10;;;;;;;;;;4954549;28;20500;-59
2020/12/03 08:06:26;;;;;;;10.52;6.60;;;;;;;;;;4955714;28;20027;-59
2020/12/03 08:09:16;;;;;;;10.38;6.55;;;;;;;;;;4954640;29;20062;-59
2020/12/03 08:11:46;;;;;;;10.13;6.28;;;;;;;;;;4952169;28;20466;-59
2020/12/03 08:14:39;;;;;;;9.82;6.47;;;;;;;;;;4955532;28;20104;-61
2020/12/03 08:17:16;;;;;;;10.38;6.45;;;;;;;;;;4955578;28;20023;-59
2020/12/03 08:19:41;;;;;;;10.38;6.40;;;;;;;;;;4955505;28;20032;-60
2020/12/03 08:22:26;;;;;;;11.03;6.77;;;;;;;;;;4955400;28;20031;-56
2020/12/03 08:25:16;;;;;;;10.23;6.40;;;;;;;;;;4969405;28;20022;-57
2020/12/03 08:27:41;;;;;;;9.82;6.25;;;;;;;;;;4974608;28;20477;-59
2020/12/03 08:30:35;;;;;;;9.87;6.17;;;;;;;;;;4973683;28;20026;-58
2020/12/03 08:33:07;;;;;;;9.52;6.43;;;;;;;;;;4975396;28;20038;-59
2020/12/03 08:35:32;;;;;;;10.27;6.53;;;;;;;;;;4973452;28;20037;-59
2020/12/03 08:38:01;;;;;;;11.83;7.10;;;;;;;;;;4974450;28;20467;-59
2020/12/03 08:40:28;;;;;;;11.02;6.32;;;;;;;;;;4973144;28;20545;-59
2020/12/03 08:42:53;;;;;;;10.23;6.43;;;;;;;;;;4974255;28;20398;-59
2020/12/03 08:45:19;;;;;;;10.17;6.47;;;;;;;;;;4974536;28;20037;-59
2020/12/03 08:47:45;;;;;;;11.07;6.53;;;;;;;;;;4974381;28;20050;-59
2020/12/03 08:50:14;;;;;;;;;;;;;;;;;;4957792;28;20453;-60
2020/12/03 08:52:39;;;;;;;9.55;5.78;;;;;;;;;;4974240;28;19975;-59
2020/12/03 08:55:05;;;;;;;9.70;5.70;;;;;;;;;;4974031;28;20481;-61
2020/12/03 08:57:31;;;;;;;8.73;5.78;;;;;;;;;;4973204;28;20049;-59
2020/12/03 08:59:57;;;;;;;9.07;5.60;;;;;;;;;;4973080;28;20058;-59
2020/12/03 09:02:23;;;;;;;9.63;5.88;;;;;;;;;;4956981;28;20018;-58
2020/12/03 09:04:53;;;;;;;13.00;5.78;;;;;;;;;;4956546;28;20044;-59
2020/12/03 09:07:19;;;;;;;10.98;6.03;;;;;;;;;;4967444;28;20438;-62
2020/12/03 09:09:45;;;;;;;9.80;6.07;;;;;;;;;;4937930;29;20336;-61
2020/12/03 09:12:10;;;;;;;10.70;6.13;;;;;;;;;;4954683;28;20038;-59
2020/12/03 09:14:36;;;;;;;10.90;6.27;;;;;;;;;;4937646;29;20367;-59
2020/12/03 09:17:08;;;;;;;10.10;6.33;;;;;;;;;;4954894;28;20031;-61
2020/12/03 09:19:33;;;;;;;10.27;6.22;;;;;;;;;;4953733;29;20031;-59
2020/12/03 09:21:59;;;;;;;10.57;6.37;;;;;;;;;;4954596;28;20058;-61
2020/12/03 09:24:25;;;;;;;9.90;6.33;;;;;;;;;;4937971;29;20027;-61
2020/12/03 09:26:51;;;;;;;10.55;6.68;;;;;;;;;;4953561;29;20062;-61
2020/12/03 09:29:18;;;;;;;12.10;6.53;;;;;;;;;;4938525;29;20035;-59
2020/12/03 09:31:43;;;;;;;10.60;6.38;;;;;;;;;;4954434;29;20026;-59
2020/12/03 09:34:08;;;;;;;10.77;6.20;;;;;;;;;;4954691;28;20460;-59
2020/12/03 09:36:35;;;;;;;12.80;6.93;;;;;;;;;;4953065;29;20078;-61
2020/12/03 09:39:01;;;;;;;9.68;6.00;;;;;;;;;;4953958;29;20059;-61
2020/12/03 09:41:26;;;;;;;11.07;6.87;;;;;;;;;;4953252;29;20070;-61
2020/12/03 09:43:54;;;;;;;10.50;6.40;;;;;;;;;;4937436;29;20059;-59
2020/12/03 09:46:24;;;;;;;12.55;6.20;;;;;;;;;;4937535;29;20510;-60
2020/12/03 09:48:51;;;;;;;10.75;5.90;;;;;;;;;;4938098;29;20086;-58
2020/12/03 09:51:17;;;;;;;;;;;;;;;;;;4952873;28;20019;-59
2020/12/03 09:58:22;;;;;;;9.95;5.57;;;;;;;;;;5080111;27;20418;-75
2020/12/03 10:00:50;;;;;;;10.10;5.47;;;;;;;;;;5033915;28;20044;-74
2020/12/03 10:03:26;;;;;;;10.07;5.40;;;;;;;;;;5032937;28;20037;-73
2020/12/03 10:06:08;;;;;;;9.13;5.28;;;;;;;;;;5044181;28;20473;-75
2020/12/03 10:09:01;;;;;;;11.25;5.72;;;;;;;;;;5034905;28;20114;-74
2020/12/03 10:12:03;;;;;;;8.68;5.63;;;;;;;;;;5030725;28;20112;-75
2020/12/03 10:14:48;;;;;;;9.10;5.20;;;;;;;;;;5042833;28;20445;-75
2020/12/03 10:17:15;;;;;;;8.13;4.97;;;;;;;;;;5035746;28;20029;-74
2020/12/03 10:19:42;;;;;;;8.10;5.22;;;;;;;;;;5034218;28;20032;-73
2020/12/03 10:22:22;;;;;;;8.18;5.10;;;;;;;;;;5042035;28;20025;-75
2020/12/03 10:25:08;;;;;;;9.70;5.22;;;;;;;;;;5050992;28;20032;-75
2020/12/03 10:27:39;;;;;;;11.05;5.53;;;;;;;;;;5058427;28;20044;-77
2020/12/03 10:30:07;;;;;;;8.40;5.30;;;;;;;;;;5055301;28;20021;-76
2020/12/03 10:32:36;;;;;;;9.23;5.60;;;;;;;;;;5050267;28;20025;-76
2020/12/03 10:35:02;;;;;;;8.23;5.00;;;;;;;;;;5049558;28;20468;-75
2020/12/03 10:37:35;;;;;;;10.27;5.30;;;;;;;;;;5053377;28;20091;-76
2020/12/03 10:40:02;;;;;;;8.25;5.18;;;;;;;;;;5032465;28;20037;-76
2020/12/03 10:42:32;;;;;;;8.05;5.10;;;;;;;;;;5053636;23;20470;-74
2020/12/03 10:45:14;;;;;;;8.90;5.05;;;;;;;;;;4992588;28;20030;-73
2020/12/03 10:47:49;;;;;;;8.52;5.07;;;;;;;;;;5028564;28;20124;-73
2020/12/03 10:50:16;;;;;;;7.40;5.03;;;;;;;;;;5014403;28;20025;-73
2020/12/03 10:52:42;;;;;;;;;;;;;;;;;;5012654;28;20080;-73
2020/12/03 10:55:07;;;;;;;7.93;4.70;;;;;;;;;;5028172;28;19917;-74
2020/12/03 10:57:33;;;;;;;9.53;5.00;;;;;;;;;;5011705;28;20025;-74
2020/12/03 10:59:59;;;;;;;7.70;4.90;;;;;;;;;;5011670;28;20057;-72
2020/12/03 11:02:43;;;;;;;8.63;4.80;;;;;;;;;;5011959;28;20033;-74
2020/12/03 11:05:09;;;;;;;7.57;4.82;;;;;;;;;;5028224;28;20080;-74
2020/12/03 11:07:35;;;;;;;7.80;4.50;;;;;;;;;;5010115;28;20026;-74
2020/12/03 11:10:00;;;;;;;8.38;5.00;;;;;;;;;;4997908;28;20032;-74
2020/12/03 11:12:26;;;;;;;8.50;5.10;;;;;;;;;;4998501;28;20034;-72
2020/12/03 11:14:52;;;;;;;6.63;4.30;;;;;;;;;;5015394;28;20034;-73
2020/12/03 11:17:23;;;;;;;7.17;4.67;;;;;;;;;;4998152;28;20060;-73
2020/12/03 11:19:48;;;;;;;8.57;5.13;;;;;;;;;;5015726;28;20032;-71
2020/12/03 11:22:26;;;;;;;7.87;4.63;;;;;;;;;;5014491;28;20033;-73
2020/12/03 11:25:00;;;;;;;7.68;4.63;;;;;;;;;;5016190;28;20033;-73
2020/12/03 11:27:25;;;;;;;8.23;4.47;;;;;;;;;;4981891;28;20026;-71
2020/12/03 11:29:50;;;;;;;9.00;5.00;;;;;;;;;;4980499;28;20058;-73
2020/12/03 11:32:25;;;;;;;8.27;5.03;;;;;;;;;;4996071;28;20026;-73
2020/12/03 11:34:51;;;;;;;7.72;5.03;;;;;;;;;;5004025;28;20041;-72
2020/12/03 11:37:24;;;;;;;8.63;4.63;;;;;;;;;;5014342;28;20026;-73
2020/12/03 11:39:51;;;;;;;7.60;4.40;;;;;;;;;;5030300;28;20472;-74
2020/12/03 11:42:35;;;;;;;7.22;4.47;;;;;;;;;;5024914;28;20500;-71
2020/12/03 11:50:27;;;;;;;6.88;4.22;;;;;;;;;;4973781;28;20111;-74
2020/12/03 11:52:59;;;;;;;7.63;4.53;;;;;;;;;;4980829;28;20084;-73
2020/12/03 11:55:25;;;;;;;7.63;4.50;;;;;;;;;;4981000;28;20026;-73
2020/12/03 11:57:51;;;;;;;7.18;4.40;;;;;;;;;;5013948;28;20018;-73
2020/12/03 12:00:21;;;;;;;7.57;4.60;;;;;;;;;;4997692;28;20049;-74
2020/12/03 12:02:48;;;;;;;6.72;4.32;;;;;;;;;;5013935;28;20041;-74
2020/12/03 12:05:24;;;;;;;7.25;4.47;;;;;;;;;;4997368;28;20017;-74
2020/12/03 12:08:07;;;;;;;7.43;4.43;;;;;;;;;;4999218;28;20033;-74
2020/12/03 12:10:39;;;;;;;7.05;4.10;;;;;;;;;;5014833;28;20116;-73
2020/12/03 12:13:04;;;;;;;6.63;4.18;;;;;;;;;;5014493;28;20064;-72
2020/12/03 12:15:29;;;;;;;7.50;4.60;;;;;;;;;;4996778;28;20061;-73
2020/12/03 12:17:55;;;;;;;7.77;4.47;;;;;;;;;;5014738;28;20060;-74
2020/12/03 12:20:21;;;;;;;6.33;4.17;;;;;;;;;;5013699;28;20057;-74
2020/12/03 12:22:46;;;;;;;6.65;4.43;;;;;;;;;;5013517;28;20481;-76
2020/12/03 12:25:12;;;;;;;6.83;4.20;;;;;;;;;;5014741;28;20033;-75
2020/12/03 12:27:37;;;;;;;7.00;3.97;;;;;;;;;;4996770;28;20054;-75
2020/12/03 12:30:03;;;;;;;6.43;4.20;;;;;;;;;;5014715;28;20160;-76
2020/12/03 12:32:28;;;;;;;7.27;4.00;;;;;;;;;;5013048;28;20037;-74
2020/12/03 12:34:53;;;;;;;7.77;4.87;;;;;;;;;;5013224;28;20062;-76
2020/12/03 12:37:19;;;;;;;7.27;4.53;;;;;;;;;;5013848;28;20054;-75
2020/12/03 12:39:44;;;;;;;6.37;4.20;;;;;;;;;;5014037;28;20065;-72
2020/12/03 12:42:10;;;;;;;6.80;4.30;;;;;;;;;;5012531;28;20053;-74
2020/12/03 12:44:35;;;;;;;7.40;4.50;;;;;;;;;;5012740;28;20069;-75
2020/12/03 12:47:01;;;;;;;6.63;4.53;;;;;;;;;;4996245;28;20493;-75
2020/12/03 12:49:27;;;;;;;7.23;4.13;;;;;;;;;;5012531;28;20017;-75
2020/12/03 12:51:54;;;;;;;8.30;4.40;;;;;;;;;;4996674;28;20021;-75
2020/12/03 12:54:21;;;;;;;7.20;4.65;;;;;;;;;;4996531;28;20327;-75
2020/12/03 12:56:47;;;;;;;7.10;4.10;;;;;;;;;;5012465;28;20045;-73
2020/12/03 12:59:13;;;;;;;8.90;4.40;;;;;;;;;;4996066;28;20520;-75
2020/12/03 13:01:49;;;;;;;9.15;4.40;;;;;;;;;;4996544;28;20029;-76
2020/12/03 13:04:14;;;;;;;6.95;4.20;;;;;;;;;;5011681;28;20553;-74
2020/12/03 13:06:40;;;;;;;7.70;4.23;;;;;;;;;;4996545;28;20034;-74
2020/12/03 13:09:06;;;;;;;7.50;4.10;;;;;;;;;;5012720;28;20144;-73
2020/12/03 13:11:31;;;;;;;6.73;4.17;;;;;;;;;;5014061;28;20497;-74
2020/12/03 13:13:57;;;;;;;7.47;4.27;;;;;;;;;;4997328;28;20316;-73
2020/12/03 13:16:22;;;;;;;7.17;4.03;;;;;;;;;;5011702;28;20392;-73
2020/12/03 13:18:47;;;;;;;6.03;4.10;;;;;;;;;;5011886;28;20032;-74
2020/12/03 13:21:13;;;;;;;6.63;4.07;;;;;;;;;;5012878;28;20049;-73
2020/12/03 13:23:38;;;;;;;6.00;3.83;;;;;;;;;;5013471;28;20057;-73
2020/12/03 13:26:03;;;;;;;6.77;3.87;;;;;;;;;;4996037;28;20061;-75
2020/12/03 13:28:29;;;;;;;6.17;3.90;;;;;;;;;;5012079;28;20065;-72
2020/12/03 13:30:54;;;;;;;7.30;3.90;;;;;;;;;;4996047;28;20081;-75
2020/12/03 13:33:19;;;;;;;5.50;3.70;;;;;;;;;;4996090;28;20441;-75
2020/12/03 13:35:45;;;;;;;6.53;4.00;;;;;;;;;;4995348;28;20671;-73
2020/12/03 13:38:12;;;;;;;6.77;3.90;;;;;;;;;;5001908;28;20158;-75
2020/12/03 13:40:42;;;;;;;6.15;3.72;;;;;;;;;;4992261;28;20037;-73
2020/12/03 13:43:07;;;;;;;7.25;3.80;;;;;;;;;;4993827;28;20041;-73
2020/12/03 13:45:32;;;;;;;5.50;3.30;;;;;;;;;;4992764;28;20022;-74
2020/12/03 13:47:58;;;;;;;6.83;3.57;;;;;;;;;;4992525;28;20073;-75
2020/12/03 13:50:23;;;;;;;5.37;3.70;;;;;;;;;;4992666;28;20085;-75
2020/12/03 13:52:48;;;;;;;6.07;3.70;;;;;;;;;;4976333;28;20497;-73
2020/12/03 13:55:14;;;;;;;5.37;3.67;;;;;;;;;;4992508;28;20502;-75
2020/12/03 13:57:40;;;;;;;6.20;3.58;;;;;;;;;;4992733;28;20508;-74
2020/12/03 14:00:05;;;;;;;6.37;3.30;;;;;;;;;;4992547;28;20077;-73
2020/12/03 14:02:34;;;;;;;7.20;3.83;;;;;;;;;;4992496;28;20065;-74
2020/12/03 14:04:59;;;;;;;5.88;3.80;;;;;;;;;;4993669;28;20031;-73
2020/12/03 14:07:24;;;;;;;5.77;3.27;;;;;;;;;;4992627;28;20070;-73
2020/12/03 14:09:50;;;;;;;6.37;3.53;;;;;;;;;;4976211;28;20080;-74
2020/12/03 14:12:15;;;;;;;6.70;3.50;;;;;;;;;;4992386;28;20054;-74
2020/12/03 14:14:44;;;;;;;6.67;3.40;;;;;;;;;;4976149;28;20058;-74
2020/12/03 14:17:10;;;;;;;5.47;3.33;;;;;;;;;;4976585;28;20023;-72
2020/12/03 14:19:36;;;;;;;5.45;3.35;;;;;;;;;;4992410;28;20027;-74
2020/12/03 14:22:01;;;;;;;5.47;3.20;;;;;;;;;;4992361;28;20057;-74
2020/12/03 14:24:26;;;;;;;6.53;3.40;;;;;;;;;;4976062;28;20490;-74
2020/12/03 14:26:52;;;;;;;6.03;3.33;;;;;;;;;;4992287;28;20057;-74
2020/12/03 14:29:17;;;;;;;5.77;3.23;;;;;;;;;;4993671;28;20428;-75
2020/12/03 14:31:42;;;;;;;6.20;3.20;;;;;;;;;;4992434;28;20058;-74
2020/12/03 14:34:08;;;;;;;6.20;3.37;;;;;;;;;;4993411;28;20113;-73
2020/12/03 14:36:33;;;;;;;6.17;3.37;;;;;;;;;;4991968;28;20076;-73
2020/12/03 14:38:59;;;;;;;5.43;3.20;;;;;;;;;;4992178;28;20389;-73
2020/12/03 14:41:24;;;;;;;4.27;2.80;;;;;;;;;;4992157;28;20496;-73
2020/12/03 14:43:49;;;;;;;6.20;3.40;;;;;;;;;;4994876;28;20093;-74
2020/12/03 14:46:15;;;;;;;5.97;2.73;;;;;;;;;;4963269;28;20057;-73
2020/12/03 14:48:40;;;;;;;5.27;3.27;;;;;;;;;;4979604;28;20069;-73
2020/12/03 14:51:06;;;;;;;5.27;3.30;;;;;;;;;;4997152;28;20058;-73
2020/12/03 14:53:31;;;;;;;5.57;3.00;;;;;;;;;;4995817;28;20068;-73
2020/12/03 14:56:00;;;;;;;4.70;3.00;;;;;;;;;;4979264;28;20063;-74
2020/12/03 14:58:27;;;;;;;4.95;3.10;;;;;;;;;;4995598;28;20030;-73
2020/12/03 15:00:53;;;;;;;5.28;3.08;;;;;;;;;;4995873;28;20473;-73
2020/12/03 15:03:18;;;;;;;5.63;3.20;;;;;;;;;;5005164;28;20120;-72
2020/12/03 15:05:43;;;;;;;5.20;3.00;;;;;;;;;;4996280;28;20438;-72
2020/12/03 15:08:09;;;;;;;6.47;3.50;;;;;;;;;;4979075;28;20116;-71
2020/12/03 15:10:40;;;;;;;5.07;3.28;;;;;;;;;;4986884;28;20072;-72